createdAt,value
2018-12-29T00:01:57.449Z,70.48
2018-12-29T00:04:25.833Z,70.33
2018-12-29T00:06:54.623Z,70.46
2018-12-29T00:09:23.503Z,70.61
2018-12-29T00:11:51.897Z,70.68
2018-12-29T00:14:20.679Z,70.58
2018-12-29T00:16:49.076Z,70.75
2018-12-29T00:19:17.466Z,70.89
2018-12-29T00:21:46.050Z,70.75
2018-12-29T00:24:14.811Z,70.80
2018-12-29T00:26:43.202Z,70.71
2018-12-29T00:29:11.975Z,70.51
2018-12-29T00:31:40.372Z,70.67
2018-12-29T00:34:08.834Z,70.92
2018-12-29T00:36:37.435Z,71.04
2018-12-29T00:39:06.586Z,71.28
2018-12-29T00:41:35.118Z,71.25
2018-12-29T00:44:03.507Z,71.08
2018-12-29T00:46:31.892Z,71.37
2018-12-29T00:49:00.295Z,71.30
2018-12-29T00:51:28.924Z,71.35
2018-12-29T00:53:57.337Z,71.52
2018-12-29T00:56:26.109Z,71.60
2018-12-29T00:58:54.491Z,71.64
2018-12-29T01:01:22.893Z,71.57
2018-12-29T01:03:51.272Z,71.50
2018-12-29T01:06:19.662Z,71.39
2018-12-29T01:08:48.058Z,71.30
2018-12-29T01:11:16.444Z,71.06
2018-12-29T01:13:44.841Z,70.82
2018-12-29T01:16:13.230Z,70.75
2018-12-29T01:18:42.015Z,70.75
2018-12-29T01:21:11.314Z,70.33
2018-12-29T01:23:39.978Z,70.44
2018-12-29T01:26:08.383Z,70.60
2018-12-29T01:28:37.173Z,70.78
2018-12-29T01:31:05.876Z,71.27
2018-12-29T01:33:34.547Z,70.99
2018-12-29T01:36:03.012Z,71.20
2018-12-29T01:38:31.390Z,71.39
2018-12-29T01:41:00.014Z,71.44
2018-12-29T01:43:28.405Z,71.77
2018-12-29T01:45:57.154Z,71.83
2018-12-29T01:48:25.843Z,71.92
2018-12-29T01:50:54.225Z,72.12
2018-12-29T01:53:23.003Z,72.25
2018-12-29T01:55:51.409Z,72.46
2018-12-29T01:58:19.995Z,72.57
2018-12-29T02:00:48.380Z,72.71
2018-12-29T02:03:16.763Z,72.75
2018-12-29T02:05:45.158Z,72.77
2018-12-29T02:08:13.540Z,72.79
2018-12-29T02:10:42.161Z,72.91
2018-12-29T02:13:10.571Z,72.91
2018-12-29T02:15:38.954Z,73.06
2018-12-29T02:18:07.331Z,72.91
2018-12-29T02:20:35.735Z,73.11
2018-12-29T02:23:04.378Z,73.03
2018-12-29T02:25:32.761Z,73.26
2018-12-29T02:28:01.375Z,73.07
2018-12-29T02:30:29.757Z,72.99
2018-12-29T02:32:58.159Z,72.94
2018-12-29T02:35:26.532Z,73.05
2018-12-29T02:37:55.264Z,72.79
2018-12-29T02:40:23.670Z,72.89
2018-12-29T02:42:52.429Z,72.96
2018-12-29T02:45:20.825Z,72.96
2018-12-29T02:47:49.631Z,73.01
2018-12-29T02:50:18.284Z,72.88
2018-12-29T02:52:46.985Z,72.65
2018-12-29T02:55:15.357Z,72.72
2018-12-29T02:57:43.739Z,73.00
2018-12-29T03:00:12.306Z,73.08
2018-12-29T03:02:40.702Z,72.85
2018-12-29T03:05:09.098Z,72.94
2018-12-29T03:07:38.066Z,73.00
2018-12-29T03:10:06.453Z,73.00
2018-12-29T03:12:34.855Z,73.02
2018-12-29T03:15:03.254Z,72.98
2018-12-29T03:17:31.987Z,72.99
2018-12-29T03:20:00.458Z,72.84
2018-12-29T03:22:28.847Z,72.89
2018-12-29T03:24:57.844Z,73.44
2018-12-29T03:27:26.558Z,73.67
2018-12-29T03:29:54.944Z,73.87
2018-12-29T03:32:23.710Z,73.69
2018-12-29T03:34:52.106Z,73.62
2018-12-29T03:37:20.485Z,73.75
2018-12-29T03:39:49.071Z,73.79
2018-12-29T03:42:17.744Z,73.89
2018-12-29T03:44:46.129Z,73.98
2018-12-29T03:47:14.529Z,73.93
2018-12-29T03:49:42.913Z,74.05
2018-12-29T03:52:11.304Z,74.03
2018-12-29T03:54:39.952Z,73.97
2018-12-29T03:57:08.712Z,74.27
2018-12-29T03:59:37.415Z,74.27
2018-12-29T04:02:06.132Z,74.40
2018-12-29T04:04:34.516Z,74.48
2018-12-29T04:07:03.258Z,74.72
2018-12-29T04:09:33.494Z,74.72
2018-12-29T04:12:05.146Z,75.76
2018-12-29T04:14:36.016Z,75.59
2018-12-29T04:17:04.763Z,75.57
2018-12-29T04:19:33.159Z,75.46
2018-12-29T04:22:01.545Z,75.50
2018-12-29T04:24:29.976Z,75.64
2018-12-29T04:26:58.668Z,75.84
2018-12-29T04:29:27.369Z,75.85
2018-12-29T04:31:55.757Z,76.37
2018-12-29T04:34:24.142Z,76.21
2018-12-29T04:36:52.541Z,76.25
2018-12-29T04:39:20.925Z,76.30
2018-12-29T04:41:49.314Z,76.54
2018-12-29T04:44:17.910Z,76.58
2018-12-29T04:46:46.291Z,76.62
2018-12-29T04:49:14.683Z,76.79
2018-12-29T04:51:43.081Z,76.80
2018-12-29T04:54:11.469Z,76.80
2018-12-29T04:56:39.877Z,76.89
2018-12-29T04:59:08.265Z,76.80
2018-12-29T05:01:36.942Z,76.92
2018-12-29T05:04:05.319Z,76.79
2018-12-29T05:06:33.708Z,76.67
2018-12-29T05:09:02.458Z,76.65
2018-12-29T05:11:30.923Z,76.87
2018-12-29T05:13:59.308Z,77.11
2018-12-29T05:16:27.894Z,77.49
2018-12-29T05:18:56.581Z,77.59
2018-12-29T05:21:25.122Z,77.42
2018-12-29T05:23:53.506Z,77.67
2018-12-29T05:26:21.888Z,77.81
2018-12-29T05:28:50.360Z,77.86
2018-12-29T05:31:18.991Z,77.58
2018-12-29T05:33:47.376Z,77.82
2018-12-29T05:36:15.774Z,77.68
2018-12-29T05:38:44.167Z,77.93
2018-12-29T05:41:12.551Z,77.91
2018-12-29T05:43:40.954Z,77.89
2018-12-29T05:46:09.371Z,77.86
2018-12-29T05:48:37.931Z,77.89
2018-12-29T05:51:06.313Z,77.78
2018-12-29T05:53:35.120Z,77.82
2018-12-29T05:56:03.809Z,77.98
2018-12-29T05:58:32.208Z,77.97
2018-12-29T06:01:00.593Z,78.08
2018-12-29T06:03:29.252Z,78.09
2018-12-29T06:05:57.635Z,78.10
2018-12-29T06:08:26.014Z,78.23
2018-12-29T06:10:54.414Z,78.22
2018-12-29T06:13:22.796Z,78.29
2018-12-29T06:15:51.456Z,78.25
2018-12-29T06:18:19.858Z,78.24
2018-12-29T06:20:48.624Z,78.29
2018-12-29T06:23:17.534Z,78.18
2018-12-29T06:25:45.921Z,78.22
2018-12-29T06:28:14.306Z,78.26
2018-12-29T06:30:42.705Z,78.36
2018-12-29T06:33:11.440Z,78.14
2018-12-29T06:35:40.131Z,78.19
2018-12-29T06:38:08.517Z,78.31
2018-12-29T06:40:37.120Z,78.37
2018-12-29T06:43:06.795Z,78.39
2018-12-29T06:45:35.186Z,78.27
2018-12-29T06:48:03.585Z,78.22
2018-12-29T06:50:31.979Z,78.25
2018-12-29T06:53:00.362Z,78.27
2018-12-29T06:55:28.765Z,78.47
2018-12-29T06:57:57.150Z,78.53
2018-12-29T07:00:25.539Z,78.40
2018-12-29T07:02:53.946Z,78.33
2018-12-29T07:05:22.333Z,78.39
2018-12-29T07:07:50.715Z,78.80
2018-12-29T07:10:19.113Z,79.11
2018-12-29T07:12:47.496Z,79.18
2018-12-29T07:15:15.896Z,79.09
2018-12-29T07:17:44.277Z,79.14
2018-12-29T07:20:12.994Z,79.18
2018-12-29T07:22:41.380Z,79.77
2018-12-29T07:25:09.782Z,79.84
2018-12-29T07:27:38.436Z,79.56
2018-12-29T07:30:07.984Z,79.56
2018-12-29T07:32:36.551Z,79.62
2018-12-29T07:35:05.301Z,79.88
2018-12-29T07:37:33.694Z,79.80
2018-12-29T07:40:02.095Z,79.79
2018-12-29T07:42:30.549Z,79.70
2018-12-29T07:44:58.931Z,79.69
2018-12-29T07:47:27.329Z,79.70
2018-12-29T07:49:55.997Z,79.97
2018-12-29T07:52:24.379Z,79.84
2018-12-29T07:54:53.164Z,79.63
2018-12-29T07:57:21.563Z,79.57
2018-12-29T07:59:49.943Z,79.73
2018-12-29T08:02:18.328Z,79.82
2018-12-29T08:04:47.119Z,79.66
2018-12-29T08:07:15.688Z,79.50
2018-12-29T08:09:44.075Z,80.18
2018-12-29T08:12:12.471Z,80.07
2018-12-29T08:14:40.859Z,79.76
2018-12-29T08:17:09.249Z,79.64
2018-12-29T08:19:38.005Z,79.84
2018-12-29T08:22:06.399Z,79.61
2018-12-29T08:24:34.852Z,79.63
2018-12-29T08:27:03.419Z,79.93
2018-12-29T08:29:31.815Z,80.00
2018-12-29T08:32:00.587Z,79.80
2018-12-29T08:34:29.261Z,79.74
2018-12-29T08:36:57.672Z,79.49
2018-12-29T08:39:26.056Z,79.47
2018-12-29T08:41:54.500Z,79.30
2018-12-29T08:44:22.896Z,79.25
2018-12-29T08:46:51.283Z,79.52
2018-12-29T08:49:19.682Z,79.51
2018-12-29T08:51:48.067Z,79.50
2018-12-29T08:54:16.449Z,79.54
2018-12-29T08:56:45.026Z,79.47
2018-12-29T08:59:13.885Z,79.49
2018-12-29T09:01:42.382Z,79.75
2018-12-29T09:04:10.779Z,79.63
2018-12-29T09:06:39.182Z,79.54
2018-12-29T09:09:07.584Z,79.56
2018-12-29T09:11:35.983Z,79.73
2018-12-29T09:14:04.373Z,79.96
2018-12-29T09:16:32.780Z,79.91
2018-12-29T09:19:01.464Z,80.03
2018-12-29T09:21:30.132Z,79.95
2018-12-29T09:23:58.520Z,80.04
2018-12-29T09:26:27.008Z,79.86
2018-12-29T09:28:55.395Z,79.52
2018-12-29T09:31:23.911Z,79.66
2018-12-29T09:33:52.623Z,79.53
2018-12-29T09:36:21.428Z,79.90
2018-12-29T09:38:49.867Z,79.91
2018-12-29T09:41:18.256Z,79.89
2018-12-29T09:43:46.691Z,79.96
2018-12-29T09:46:15.083Z,79.94
2018-12-29T09:48:43.473Z,79.70
2018-12-29T09:51:11.875Z,79.72
2018-12-29T09:53:41.292Z,79.52
2018-12-29T09:56:11.216Z,79.42
2018-12-29T09:58:39.904Z,79.51
2018-12-29T10:01:08.611Z,79.62
2018-12-29T10:03:37.008Z,79.84
2018-12-29T10:06:05.392Z,79.83
2018-12-29T10:08:34.030Z,79.68
2018-12-29T10:11:02.724Z,79.93
2018-12-29T10:13:31.108Z,80.17
2018-12-29T10:15:59.507Z,80.20
2018-12-29T10:18:27.887Z,80.07
2018-12-29T10:20:56.345Z,80.05
2018-12-29T10:23:25.116Z,79.90
2018-12-29T10:25:53.506Z,79.87
2018-12-29T10:28:22.068Z,80.00
2018-12-29T10:30:50.817Z,79.96
2018-12-29T10:33:19.165Z,80.10
2018-12-29T10:35:47.639Z,80.06
2018-12-29T10:38:16.030Z,79.74
2018-12-29T10:40:44.696Z,79.86
2018-12-29T10:43:13.079Z,79.80
2018-12-29T10:45:41.568Z,79.81
2018-12-29T10:48:10.367Z,79.80
2018-12-29T10:50:39.043Z,79.77
2018-12-29T10:53:07.769Z,79.69
2018-12-29T10:55:36.424Z,79.74
2018-12-29T10:58:04.807Z,79.79
2018-12-29T11:00:35.205Z,79.70
2018-12-29T11:03:03.459Z,79.65
2018-12-29T11:05:31.881Z,79.54
2018-12-29T11:08:00.674Z,79.56
2018-12-29T11:10:29.056Z,79.70
2018-12-29T11:12:57.677Z,79.58
2018-12-29T11:15:26.084Z,79.54
2018-12-29T11:17:54.463Z,79.44
2018-12-29T11:20:22.837Z,79.43
2018-12-29T11:22:51.234Z,79.51
2018-12-29T11:25:19.730Z,79.51
2018-12-29T11:27:48.422Z,79.47
2018-12-29T11:30:16.823Z,79.41
2018-12-29T11:32:45.440Z,79.25
2018-12-29T11:35:13.822Z,79.26
2018-12-29T11:37:44.072Z,79.03
2018-12-29T11:40:12.409Z,79.05
2018-12-29T11:42:41.235Z,79.07
2018-12-29T11:45:09.642Z,79.10
2018-12-29T11:47:38.401Z,79.52
2018-12-29T11:50:07.920Z,79.52
2018-12-29T11:52:36.304Z,78.92
2018-12-29T11:55:06.086Z,78.90
2018-12-29T11:57:34.473Z,78.86
2018-12-29T12:00:03.016Z,78.71
2018-12-29T12:02:32.354Z,78.63
2018-12-29T12:05:00.812Z,78.65
2018-12-29T12:07:29.523Z,78.66
2018-12-29T12:09:57.908Z,78.59
2018-12-29T12:12:26.289Z,78.66
2018-12-29T12:14:55.169Z,78.72
2018-12-29T12:17:23.556Z,78.69
2018-12-29T12:19:51.940Z,78.58
2018-12-29T12:22:20.615Z,78.64
2018-12-29T12:24:49.010Z,78.62
2018-12-29T12:27:17.562Z,78.62
2018-12-29T12:29:46.322Z,78.40
2018-12-29T12:32:15.909Z,78.26
2018-12-29T12:34:44.307Z,78.36
2018-12-29T12:37:12.699Z,78.24
2018-12-29T12:39:41.455Z,78.34
2018-12-29T12:42:09.857Z,78.36
2018-12-29T12:44:38.235Z,78.34
2018-12-29T12:47:07.099Z,78.23
2018-12-29T12:49:35.496Z,78.38
2018-12-29T12:52:03.881Z,78.42
2018-12-29T12:54:32.270Z,78.42
2018-12-29T12:57:00.667Z,78.15
2018-12-29T12:59:30.095Z,77.86
2018-12-29T13:01:58.487Z,77.69
2018-12-29T13:04:26.874Z,78.06
2018-12-29T13:06:55.975Z,77.88
2018-12-29T13:09:24.412Z,78.02
2018-12-29T13:11:53.101Z,77.79
2018-12-29T13:14:21.697Z,77.70
2018-12-29T13:16:50.196Z,77.78
2018-12-29T13:19:19.160Z,78.06
2018-12-29T13:21:47.556Z,77.98
2018-12-29T13:24:16.103Z,77.98
2018-12-29T13:26:44.827Z,77.98
2018-12-29T13:29:13.222Z,77.88
2018-12-29T13:31:42.186Z,78.01
2018-12-29T13:34:10.568Z,77.98
2018-12-29T13:36:39.422Z,77.98
2018-12-29T13:39:07.952Z,77.62
2018-12-29T13:41:37.551Z,77.61
2018-12-29T13:44:06.852Z,77.46
2018-12-29T13:46:35.549Z,77.46
2018-12-29T13:49:04.050Z,77.64
2018-12-29T13:51:32.708Z,77.58
2018-12-29T13:54:01.112Z,77.59
2018-12-29T13:56:30.287Z,77.62
2018-12-29T13:58:58.677Z,77.86
2018-12-29T14:01:27.148Z,77.86
2018-12-29T14:03:56.873Z,77.68
2018-12-29T14:06:25.411Z,77.78
2018-12-29T14:08:53.812Z,77.91
2018-12-29T14:11:22.281Z,77.91
2018-12-29T14:13:52.262Z,77.84
2018-12-29T14:16:20.771Z,77.86
2018-12-29T14:18:49.253Z,77.73
2018-12-29T14:21:17.962Z,77.73
2018-12-29T14:23:46.379Z,77.64
2018-12-29T14:26:14.760Z,77.59
2018-12-29T14:28:45.518Z,77.59
2018-12-29T14:31:13.257Z,77.72
2018-12-29T14:33:41.665Z,77.75
2018-12-29T14:36:10.281Z,77.75
2018-12-29T14:38:38.738Z,77.84
2018-12-29T14:41:07.454Z,77.89
2018-12-29T14:43:36.691Z,77.88
2018-12-29T14:46:05.142Z,77.90
2018-12-29T14:48:36.093Z,77.98
2018-12-29T14:51:03.650Z,77.77
2018-12-29T14:53:32.236Z,77.93
2018-12-29T14:56:01.909Z,77.86
2018-12-29T14:58:30.418Z,77.93
2018-12-29T15:00:59.134Z,77.93
2018-12-29T15:03:27.510Z,77.73
2018-12-29T15:05:55.906Z,77.64
2018-12-29T15:08:24.772Z,77.28
2018-12-29T15:10:53.164Z,77.27
2018-12-29T15:13:22.653Z,77.27
2018-12-29T15:15:51.051Z,77.10
2018-12-29T15:18:19.818Z,76.98
2018-12-29T15:20:49.133Z,76.75
2018-12-29T15:23:17.783Z,76.80
2018-12-29T15:25:46.456Z,76.80
2018-12-29T15:28:14.847Z,76.94
2018-12-29T15:30:44.042Z,76.76
2018-12-29T15:33:12.469Z,76.75
2018-12-29T15:35:40.831Z,76.74
2018-12-29T15:38:10.302Z,76.61
2018-12-29T15:40:39.003Z,75.94
2018-12-29T15:43:07.387Z,76.14
2018-12-29T15:45:36.201Z,76.14
2018-12-29T15:48:04.555Z,75.73
2018-12-29T15:50:32.945Z,75.73
2018-12-29T15:53:02.727Z,75.90
2018-12-29T15:55:31.134Z,76.10
2018-12-29T15:58:00.008Z,76.36
2018-12-29T16:00:28.468Z,76.82
2018-12-29T16:02:56.846Z,76.82
2018-12-29T16:05:25.243Z,77.19
2018-12-29T16:07:53.905Z,77.23
2018-12-29T16:10:22.306Z,77.56
2018-12-29T16:12:50.694Z,77.56
2018-12-29T16:15:19.785Z,77.60
2018-12-29T16:17:48.485Z,77.79
2018-12-29T16:20:16.955Z,78.19
2018-12-29T16:22:45.631Z,78.75
2018-12-29T16:25:14.012Z,78.75
2018-12-29T16:27:47.454Z,78.90
2018-12-29T16:30:16.202Z,79.09
2018-12-29T16:32:45.069Z,79.19
2018-12-29T16:35:13.551Z,79.19
2018-12-29T16:37:43.401Z,79.55
2018-12-29T16:40:12.994Z,79.68
2018-12-29T16:42:41.473Z,80.12
2018-12-29T16:45:10.027Z,80.12
2018-12-29T16:47:38.406Z,80.38
2018-12-29T16:50:08.621Z,80.38
2018-12-29T16:52:37.398Z,80.60
2018-12-29T16:55:06.440Z,80.90
2018-12-29T16:57:34.884Z,81.31
2018-12-29T17:00:05.174Z,81.63
2018-12-29T17:02:33.843Z,81.86
2018-12-29T17:05:02.411Z,82.13
2018-12-29T17:07:30.819Z,82.34
2018-12-29T17:09:59.355Z,82.63
2018-12-29T17:12:27.752Z,82.73
2018-12-29T17:14:56.447Z,82.81
2018-12-29T17:17:24.925Z,83.19
2018-12-29T17:19:55.463Z,83.26
2018-12-29T17:22:24.153Z,83.07
2018-12-29T17:24:52.571Z,83.21
2018-12-29T17:27:20.980Z,83.23
2018-12-29T17:29:50.042Z,83.23
2018-12-29T17:32:19.049Z,83.05
2018-12-29T17:34:47.437Z,83.03
2018-12-29T17:37:15.822Z,82.97
2018-12-29T17:39:44.933Z,82.89
2018-12-29T17:42:13.377Z,82.81
2018-12-29T17:44:41.786Z,83.03
2018-12-29T17:47:10.163Z,82.91
2018-12-29T17:49:38.549Z,82.73
2018-12-29T17:52:06.939Z,82.66
2018-12-29T17:54:35.335Z,82.72
2018-12-29T17:57:03.865Z,82.68
2018-12-29T17:59:32.260Z,82.73
2018-12-29T18:02:00.877Z,82.73
2018-12-29T18:04:30.148Z,82.60
2018-12-29T18:06:58.538Z,82.65
2018-12-29T18:09:26.942Z,82.50
2018-12-29T18:11:55.912Z,82.55
2018-12-29T18:14:24.698Z,82.54
2018-12-29T18:16:53.398Z,82.69
2018-12-29T18:19:21.799Z,82.62
2018-12-29T18:21:50.192Z,82.58
2018-12-29T18:24:18.591Z,82.55
2018-12-29T18:26:47.001Z,82.74
2018-12-29T18:29:15.816Z,82.51
2018-12-29T18:31:44.496Z,82.51
2018-12-29T18:34:13.194Z,82.34
2018-12-29T18:36:41.870Z,82.41
2018-12-29T18:39:10.329Z,82.32
2018-12-29T18:41:38.725Z,82.27
2018-12-29T18:44:07.597Z,82.27
2018-12-29T18:46:36.209Z,82.31
2018-12-29T18:49:04.672Z,82.46
2018-12-29T18:51:33.058Z,82.48
2018-12-29T18:54:01.863Z,82.42
2018-12-29T18:56:30.943Z,82.48
2018-12-29T18:58:59.630Z,82.19
2018-12-29T19:01:28.087Z,82.23
2018-12-29T19:03:56.491Z,82.62
2018-12-29T19:06:24.875Z,82.63
2018-12-29T19:08:53.562Z,82.29
2018-12-29T19:11:22.064Z,82.35
2018-12-29T19:13:50.583Z,82.35
2018-12-29T19:16:19.644Z,82.20
2018-12-29T19:18:48.046Z,82.20
2018-12-29T19:21:17.605Z,82.30
2018-12-29T19:23:47.714Z,82.32
2018-12-29T19:26:16.481Z,82.32
2018-12-29T19:28:45.159Z,82.50
2018-12-29T19:31:14.420Z,82.36
2018-12-29T19:33:43.115Z,81.99
2018-12-29T19:36:11.771Z,82.13
2018-12-29T19:38:40.186Z,82.13
2018-12-29T19:41:08.942Z,82.06
2018-12-29T19:43:37.642Z,82.12
2018-12-29T19:46:06.540Z,82.14
2018-12-29T19:48:34.945Z,82.12
2018-12-29T19:51:03.361Z,82.15
2018-12-29T19:53:32.232Z,82.36
2018-12-29T19:56:00.629Z,82.43
2018-12-29T19:58:29.406Z,82.27
2018-12-29T20:00:57.839Z,82.27
2018-12-29T20:03:26.539Z,81.66
2018-12-29T20:05:54.916Z,81.66
2018-12-29T20:08:23.394Z,82.25
2018-12-29T20:10:52.204Z,82.25
2018-12-29T20:13:20.663Z,81.89
2018-12-29T20:15:49.063Z,81.85
2018-12-29T20:18:17.860Z,81.91
2018-12-29T20:20:46.282Z,82.07
2018-12-29T20:23:15.345Z,82.07
2018-12-29T20:25:43.747Z,82.00
2018-12-29T20:28:12.177Z,81.89
2018-12-29T20:30:41.511Z,81.59
2018-12-29T20:33:09.993Z,81.59
2018-12-29T20:35:38.855Z,81.59
2018-12-29T20:38:07.830Z,81.24
2018-12-29T20:40:36.792Z,81.24
2018-12-29T20:43:05.510Z,81.52
2018-12-29T20:45:33.944Z,81.52
2018-12-29T20:48:02.357Z,81.54
2018-12-29T20:50:31.569Z,81.40
2018-12-29T20:53:00.129Z,81.40
2018-12-29T20:55:28.530Z,81.33
2018-12-29T20:57:57.239Z,81.10
2018-12-29T21:00:25.801Z,81.08
2018-12-29T21:02:54.829Z,81.08
2018-12-29T21:05:23.225Z,81.12
2018-12-29T21:07:51.968Z,80.98
2018-12-29T21:10:20.411Z,80.70
2018-12-29T21:12:48.874Z,80.79
2018-12-29T21:15:18.036Z,80.79
2018-12-29T21:17:46.728Z,80.78
2018-12-29T21:20:17.450Z,80.33
2018-12-29T21:22:45.445Z,80.33
2018-12-29T21:25:14.027Z,80.27
2018-12-29T21:27:42.505Z,80.20
2018-12-29T21:30:11.566Z,80.20
2018-12-29T21:32:40.840Z,80.32
2018-12-29T21:35:09.224Z,80.30
2018-12-29T21:37:37.826Z,80.30
2018-12-29T21:40:06.235Z,80.55
2018-12-29T21:42:37.087Z,80.57
2018-12-29T21:45:06.125Z,80.36
2018-12-29T21:47:34.804Z,80.36
2018-12-29T21:50:03.193Z,80.18
2018-12-29T21:52:31.584Z,79.99
2018-12-29T21:55:00.655Z,79.78
2018-12-29T21:57:29.752Z,78.76
2018-12-29T21:59:58.480Z,78.76
2018-12-29T22:02:26.900Z,78.88
2018-12-29T22:04:55.604Z,78.49
2018-12-29T22:07:23.996Z,77.07
2018-12-29T22:09:53.099Z,76.95
2018-12-29T22:12:21.486Z,76.95
2018-12-29T22:14:49.874Z,76.75
2018-12-29T22:17:18.273Z,76.49
2018-12-29T22:19:46.658Z,76.02
2018-12-29T22:22:15.066Z,75.83
2018-12-29T22:24:44.134Z,75.32
2018-12-29T22:27:12.963Z,75.32
2018-12-29T22:29:41.478Z,74.98
2018-12-29T22:32:09.870Z,74.98
2018-12-29T22:34:39.233Z,74.53
2018-12-29T22:37:07.912Z,74.34
2018-12-29T22:39:36.672Z,73.95
2018-12-29T22:42:05.145Z,73.99
2018-12-29T22:44:33.532Z,73.93
2018-12-29T22:47:01.982Z,73.89
2018-12-29T22:49:30.381Z,74.10
2018-12-29T22:51:59.040Z,74.65
2018-12-29T22:54:27.687Z,74.91
2018-12-29T22:56:56.093Z,75.14
2018-12-29T22:59:24.475Z,75.51
2018-12-29T23:01:52.929Z,75.51
2018-12-29T23:04:21.855Z,75.58
2018-12-29T23:06:50.239Z,74.91
2018-12-29T23:09:18.614Z,75.02
2018-12-29T23:11:47.334Z,74.56
2018-12-29T23:14:16.154Z,73.19
2018-12-29T23:16:44.534Z,73.19
2018-12-29T23:19:12.965Z,72.54
2018-12-29T23:21:41.362Z,71.99
2018-12-29T23:24:09.937Z,71.15
2018-12-29T23:26:38.378Z,71.15
2018-12-29T23:29:07.892Z,70.35
2018-12-29T23:31:36.553Z,70.45
2018-12-29T23:34:04.936Z,70.45
2018-12-29T23:36:34.128Z,69.17
2018-12-29T23:39:02.513Z,68.64
2018-12-29T23:41:30.907Z,68.64
2018-12-29T23:43:59.299Z,69.01
2018-12-29T23:46:27.689Z,69.19
2018-12-29T23:48:56.072Z,69.19
2018-12-29T23:51:24.482Z,68.92
2018-12-29T23:53:52.944Z,68.11
2018-12-29T23:56:22.004Z,68.11
2018-12-29T23:58:50.556Z,68.21
